Texas Logo

Katy, TX Single Family Real Estate Listings

2447 Total Real Estate Listings * Click on table heading to sort
Date Posted Property Type Style Address Price Living Area Lot Size Price/Sq Ft.
2018-05-20 Single Family Traditional 28727 Baughman Ridge Drive Katy, TX 77494 $269,000 2,417 sq. ft. $111
2018-05-20 Single Family Traditional 2618 Teal View Lane Katy, TX 77494 $299,900 2,673 sq. ft. 6,970 sq. ft. $112
2018-05-20 Single Family Contemporary/Modern 3506 Single Ridge Way Katy, TX 77493 $238,000 2,459 sq. ft. 6,098 sq. ft. $97
2018-05-19 Single Family Contemporary/Modern 20111 Rolling Hills Lane Katy, TX 77449 $185,000 1,888 sq. ft. 4,356 sq. ft. $98
2018-05-19 Single Family Traditional 27810 Bandera Glen Lane Katy, TX 77494 $464,900 3,786 sq. ft. 8,276 sq. ft. $123
2018-05-19 Single Family Traditional 1934 Mossy Path Lane Katy, TX 77494 $470,000 3,600 sq. ft. 9,583 sq. ft. $131
2018-05-19 Single Family Traditional 21303 Park Bishop Drive Katy, TX 77450 $250,000 3,644 sq. ft. 7,841 sq. ft. $69
2018-05-19 Single Family Traditional 523 Stream Mill Lane Katy, TX 77494 $223,000 2,155 sq. ft. 7,405 sq. ft. $103
2018-05-19 Single Family Traditional 20911 Dover Mist Lane Katy, TX 77449 $172,500 1,520 sq. ft. 4,792 sq. ft. $113
2018-05-19 Single Family Traditional 19611 Adelaide Meadows Court Katy, TX 77449 $149,900 1,408 sq. ft. 5,227 sq. ft. $106
2018-05-19 Single Family Traditional 2235 Enchanted Park Ln Katy, TX 77450 $275,000 2,947 sq. ft. 7,405 sq. ft. $93
2018-05-19 Single Family Traditional 4111 Garden Branch Court Katy, TX 77450 $445,000 3,882 sq. ft. 11,761 sq. ft. $115
2018-05-19 Single Family Colonial 1517 Watts Avenue Katy, TX 77493 $205,000 1,757 sq. ft. 6,534 sq. ft. $117
2018-05-19 Single Family Contemporary/Modern 20807 Patriot Park Lane Katy, TX 77449 $155,000 1,630 sq. ft. 3,485 sq. ft. $95
2018-05-19 Single Family Traditional 1515 Kempsford Drive Katy, TX 77450 $409,900 3,369 sq. ft. 11,326 sq. ft. $122
2018-05-19 Single Family Traditional 20227 Apache Gardens Lane Katy, TX 77449 $167,000 1,275 sq. ft. 6,098 sq. ft. $131
2018-05-18 Single Family Traditional 6126 Deep South Drive Drive Katy, TX 77449 $179,900 1,833 sq. ft. 6,970 sq. ft. $98
2018-05-18 Single Family Ranch 25106 Spring Ash Lane Katy, TX 77494 $242,600 1,734 sq. ft. 5,663 sq. ft. $140
2018-05-18 Single Family Traditional 26214 Goldenport Lane Katy, TX 77494 $349,900 3,410 sq. ft. 10,019 sq. ft. $103
2018-05-18 Single Family Traditional 20614 Big Wells Drive Katy, TX 77449 $172,000 1,987 sq. ft. 6,534 sq. ft. $87
2018-05-18 Single Family Traditional 2722 Dogwood Terrace Lane Katy, TX 77494 $565,497 4,199 sq. ft. $135
2018-05-18 Single Family Contemporary/Modern 3339 Windsor Ranch Ln Katy, TX 77494 $292,000 2,331 sq. ft. 7,405 sq. ft. $125
2018-05-18 Single Family Traditional 26046 Haggard Nest Drive Katy, TX 77494 $374,000 3,320 sq. ft. 6,534 sq. ft. $113
2018-05-18 Single Family Traditional 26123 Ginger Gables Lane Katy, TX 77494 $365,000 3,248 sq. ft. 8,276 sq. ft. $112
2018-05-18 Single Family Contemporary/Modern 514 Fry Road Katy, TX 77450 $360,000 3,175 sq. ft. 9,148 sq. ft. $113
2018-05-18 Single Family Ranch; Traditional 19471 Cypress Cliff Drive Katy, TX 77449 $149,995 968 sq. ft. 6,970 sq. ft. $155
2018-05-18 Single Family Traditional 6831 Crystal Point Drive Katy, TX 77449 $244,441 2,411 sq. ft. 13,068 sq. ft. $101
2018-05-18 Single Family Traditional 4702 Magnolia Summit Lane Katy, TX 77494 $469,000 3,206 sq. ft. 8,276 sq. ft. $146
2018-05-18 Single Family Traditional 4702 Autumn Orchard Lane Katy, TX 77494 $329,900 2,512 sq. ft. 6,534 sq. ft. $131
2018-05-18 Single Family Traditional 23027 Indian Ridge Drive Katy, TX 77450 $238,900 2,470 sq. ft. 6,970 sq. ft. $97
2018-05-18 Single Family Traditional 21002 Northern Colony Court Katy, TX 77449 $170,000 1,528 sq. ft. 12,197 sq. ft. $111
2018-05-18 Single Family Traditional 827 Wild Horse Valley Road Katy, TX 77450 $174,990 2,066 sq. ft. 12,632 sq. ft. $85
2018-05-18 Single Family Traditional 3807 Briarlilly Park Circle Katy, TX 77493 $520,990 3,512 sq. ft. 7,841 sq. ft. $148
2018-05-18 Single Family Traditional 2515 Elmwood Katy, TX 77493 $336,184 2,333 sq. ft. 6,534 sq. ft. $144
2018-05-18 Single Family Traditional 18315 Fieldbluff Lane Katy, TX 77449 $192,500 2,120 sq. ft. 5,663 sq. ft. $91
2018-05-18 Single Family Traditional 3726 Windlewood Drive Katy, TX 77449 $199,900 2,426 sq. ft. 7,405 sq. ft. $82
2018-05-18 Single Family Traditional 27819 Walsh Crossing Drive Katy, TX 77494 $465,000 3,794 sq. ft. 9,583 sq. ft. $123
2018-05-18 Single Family Traditional 27922 Colonial Point Drive Katy, TX 77494 $399,900 3,569 sq. ft. 8,276 sq. ft. $112
2018-05-18 Single Family Traditional 19418 Asterglen Court Katy, TX 77449 $279,900 3,208 sq. ft. 6,970 sq. ft. $87
2018-05-18 Single Family Traditional 1507 Park Wind Drive Katy, TX 77450 $219,500 1,696 sq. ft. 7,841 sq. ft. $129
2018-05-18 Single Family Traditional 403 Gentilly Drive Katy, TX 77450 $155,000 1,915 sq. ft. 9,148 sq. ft. $81
2018-05-18 Single Family Traditional 1207 Wildwood Lane Katy, TX 77494 $479,900 4,448 sq. ft. 13,504 sq. ft. $108
2018-05-18 Single Family Traditional 4127 Cambry Park Katy, TX 77450 $318,500 2,053 sq. ft. 6,534 sq. ft. $155
2018-05-18 Single Family Traditional 5707 Delfren Lane Katy, TX 77493 $219,900 1,064 sq. ft. 11,326 sq. ft. $207
2018-05-18 Single Family Traditional 22031 Eagle Meadow Drive Katy, TX 77450 $249,000 2,055 sq. ft. 6,970 sq. ft. $121
2018-05-18 Single Family Traditional 10011 Cinco Ridge Drive Katy, TX 77494 $765,000 4,109 sq. ft. 10,890 sq. ft. $186
2018-05-18 Single Family Traditional 21402 Dolan Fall Lane Katy, TX 77450 $430,000 3,548 sq. ft. 9,148 sq. ft. $121
2018-05-18 Single Family Traditional 6819 Andorra Cove Circle Katy, TX 77449 $429,508 3,471 sq. ft. $124
2018-05-18 Single Family Traditional 2814 Crestbrook Bend Lane Katy, TX 77449 $215,000 3,006 sq. ft. 6,534 sq. ft. $72
2018-05-18 Single Family Traditional 24307 Lake Path Circle Katy, TX 77493 $290,000 3,569 sq. ft. 9,148 sq. ft. $81
2018-05-18 Single Family Traditional 20503 Blue Beech Drive Katy, TX 77449 $184,913 1,470 sq. ft. 7,405 sq. ft. $126
2018-05-18 Single Family Traditional 20074 Crazy Horse Circle Drive Katy, TX 77449 $199,500 2,041 sq. ft. 6,098 sq. ft. $98
2018-05-18 Single Family Traditional 22503 Lost Creek Road Katy, TX 77450 $200,000 1,587 sq. ft. 7,405 sq. ft. $126
2018-05-18 Single Family Traditional 503 Belwin Drive Katy, TX 77450 $160,000 2,728 sq. ft. 8,712 sq. ft. $59
2018-05-18 Single Family Traditional 27506 Rumson Drive Katy, TX 77494 $539,000 4,455 sq. ft. 9,148 sq. ft. $121
2018-05-18 Single Family Traditional 26227 Salt Creek Lane Katy, TX 77494 $425,000 3,195 sq. ft. 7,405 sq. ft. $133
2018-05-18 Single Family Traditional 6419 Alicia Way Lane Katy, TX 77493 $285,000 2,364 sq. ft. 8,276 sq. ft. $121
2018-05-18 Single Family Traditional 3110 Sedgeborough Drive Katy, TX 77449 $175,000 1,762 sq. ft. 6,534 sq. ft. $99
2018-05-18 Single Family Traditional 2415 Haven Hill Drive Katy, TX 77494 $534,900 4,687 sq. ft. 9,583 sq. ft. $114
2018-05-18 Single Family Traditional 4702 Cedarfield Road Katy, TX 77494 $394,860 3,332 sq. ft. 8,712 sq. ft. $119
2018-05-18 Single Family Traditional 1318 Colonial Manor Drive Katy, TX 77493 $229,000 2,125 sq. ft. 5,663 sq. ft. $108
2018-05-18 Single Family Traditional 22823 Bucktrout Lane Katy, TX 77449 $245,000 2,589 sq. ft. 8,276 sq. ft. $95
2018-05-18 Single Family Traditional 8611 Shambala Way Katy, TX 77494 $725,000 4,556 sq. ft. 14,810 sq. ft. $159
2018-05-17 Single Family Traditional 26506 Reflection Sky Court Katy, TX 77494 $444,000 3,480 sq. ft. 13,939 sq. ft. $128
2018-05-17 Single Family Ranch; Traditional 3506 Harper Ferry Place Katy, TX 77494 $397,344 3,062 sq. ft. $130
2018-05-17 Single Family Traditional 29226 Blue Finch Court Katy, TX 77494 $399,900 2,900 sq. ft. 13,939 sq. ft. $138
2018-05-17 Single Family Traditional 9626 Cherry Quartz Court Katy, TX 77494 $378,500 2,727 sq. ft. 6,970 sq. ft. $139
2018-05-17 Single Family Traditional 26736 Blanchard Grove Drive Katy, TX 77494 $384,900 4,017 sq. ft. 8,712 sq. ft. $96
2018-05-17 Single Family Traditional 23443 Quarry Path Way Katy, TX 77493 $225,000 2,819 sq. ft. 6,098 sq. ft. $80
2018-05-17 Single Family Traditional 547 Everington Drive Katy, TX 77450 $224,900 2,637 sq. ft. 7,405 sq. ft. $85
2018-05-17 Single Family Traditional 5315 Ashmore Park Drive Katy, TX 77494 $485,000 4,216 sq. ft. 9,148 sq. ft. $115
2018-05-17 Single Family Traditional 2110 Summer Gardens Lane Katy, TX 77493 $374,990 3,009 sq. ft. 8,712 sq. ft. $125
2018-05-17 Single Family Traditional 23919 Providence Glen Trail Katy, TX 77493 $306,570 2,500 sq. ft. 5,663 sq. ft. $123
2018-05-17 Single Family Traditional 23827 Providence Glen Trail Katy, TX 77493 $264,300 1,755 sq. ft. 5,663 sq. ft. $151
2018-05-17 Single Family Traditional 3114 Windemere Park Lane Katy, TX 77494 $295,000 2,345 sq. ft. 7,405 sq. ft. $126
2018-05-17 Single Family Traditional 26111 Sandersgate Lane Katy, TX 77494 $335,000 3,157 sq. ft. 8,276 sq. ft. $106
2018-05-17 Single Family Traditional 3910 Bell Hollow Lane Katy, TX 77494 $629,000 4,655 sq. ft. 12,632 sq. ft. $135
2018-05-17 Single Family Traditional 1535 Hoveden Drive Katy, TX 77450 $530,000 3,797 sq. ft. 15,246 sq. ft. $140
2018-05-17 Single Family Traditional 25710 Pipestone Glen Lane Katy, TX 77494 $640,000 4,430 sq. ft. 11,326 sq. ft. $144
2018-05-17 Single Family Colonial 23306 Fall Wind Court Katy, TX 77494 $350,000 2,805 sq. ft. 8,276 sq. ft. $125
2018-05-17 Single Family Traditional 4607 Ferndale Meadows Drive Katy, TX 77494 $337,000 3,213 sq. ft. 6,970 sq. ft. $105
2018-05-17 Single Family Traditional 2447 Marquette Trail Katy, TX 77494 $210,000 1,557 sq. ft. 6,098 sq. ft. $135
2018-05-17 Single Family Traditional 6103 Plantation Bay Drive Katy, TX 77449 $175,000 1,775 sq. ft. 6,534 sq. ft. $99
2018-05-17 Single Family Traditional 2003 Emerald Loft Circle Katy, TX 77450 $524,900 4,157 sq. ft. 15,682 sq. ft. $126
2018-05-17 Single Family Traditional 2206 Rocky Hollow Lane Katy, TX 77450 $248,000 2,426 sq. ft. 8,276 sq. ft. $102
2018-05-17 Single Family Traditional 26015 Pebble Terrane Lane Katy, TX 77494 $395,000 4,070 sq. ft. 9,583 sq. ft. $97
2018-05-17 Single Family Traditional 20507 Cajon Canyon Court Katy, TX 77450 $325,000 3,569 sq. ft. 7,841 sq. ft. $91
2018-05-17 Single Family Traditional 3131 Mcdonough Way Katy, TX 77494 $265,000 2,580 sq. ft. 6,098 sq. ft. $103
2018-05-17 Single Family Ranch; Traditional 5314 Baronet Drive Katy, TX 77493 $224,990 1,733 sq. ft. 5,227 sq. ft. $130
2018-05-17 Single Family Traditional 28730 Forest Pass Lane Katy, TX 77494 $290,155 2,445 sq. ft. $119
2018-05-17 Single Family Traditional 20714 Ricewood Village Trail Katy, TX 77449 $220,000 3,051 sq. ft. 6,534 sq. ft. $72
2018-05-17 Single Family Traditional 6134 Emberwood Falls Drive Katy, TX 77494 $395,000 3,188 sq. ft. 16,117 sq. ft. $124
2018-05-17 Single Family Traditional 24619 Cabin Line Lane Katy, TX 77494 $285,000 3,154 sq. ft. 6,970 sq. ft. $90
2018-05-17 Single Family Traditional 2503 Seahorse Bend Drive Katy, TX 77449 $237,900 2,687 sq. ft. 6,970 sq. ft. $89
2018-05-17 Single Family Traditional 24903 Kayvon Katy, TX 77494 $365,000 3,039 sq. ft. 10,454 sq. ft. $120
2018-05-17 Single Family Traditional 4931 Ginger Bluff Trail Katy, TX 77494 $295,000 2,515 sq. ft. 5,227 sq. ft. $117
2018-05-17 Single Family Traditional 3102 Upland Spring Trace Katy, TX 77493 $223,000 2,318 sq. ft. 4,792 sq. ft. $96
2018-05-17 Single Family Traditional 4303 Hawk Meadow Drive Katy, TX 77449 $165,000 1,441 sq. ft. 4,792 sq. ft. $114
2018-05-17 Single Family Ranch; Traditional 3118 Francisco Bay Place Katy, TX 77494 $283,470 2,268 sq. ft. $125
2018-05-17 Single Family Traditional 22130 Provincial Boulevard Katy, TX 77450 $240,000 2,248 sq. ft. 9,148 sq. ft. $107
2018-05-17 Single Family Traditional 3401 Jan Court Katy, TX 77493 $214,900 2,096 sq. ft. 4,792 sq. ft. $103
2018-05-17 Single Family Traditional 1718 Calveryman Lane Katy, TX 77449 $310,000 2,772 sq. ft. 9,583 sq. ft. $112
2018-05-17 Single Family Traditional 2815 Frasier Knolls Court Katy, TX 77494 $290,000 2,600 sq. ft. 6,534 sq. ft. $112
2018-05-17 Single Family English; Traditional 23510 Fairway Valley Lane Katy, TX 77494 $769,500 4,620 sq. ft. 13,939 sq. ft. $167
2018-05-17 Single Family Traditional 26714 Bellwood Pines Drive Katy, TX 77494 $265,000 2,520 sq. ft. 5,227 sq. ft. $105
2018-05-17 Single Family Traditional 5226 Regal Gem Lane Katy, TX 77493 $329,273 2,550 sq. ft. $129
2018-05-17 Single Family Traditional 922 Valley Ranch Drive Katy, TX 77450 $220,000 1,889 sq. ft. 7,841 sq. ft. $116
2018-05-17 Single Family Traditional 4735 Gladesdale Park Lane Katy, TX 77450 $399,000 3,818 sq. ft. 9,148 sq. ft. $104
2018-05-17 Single Family Traditional 28706 Forest Pass Drive Katy, TX 77494 $326,410 3,262 sq. ft. $100
2018-05-17 Single Family Traditional 28818 Davenport Drive Katy, TX 77494 $335,000 3,476 sq. ft. 7,405 sq. ft. $96
2018-05-17 Single Family Traditional 2235 Falcon Brook Katy, TX 77494 $348,427 2,518 sq. ft. 6,098 sq. ft. $138
2018-05-17 Single Family Traditional 3026 Francisco Bay Place Katy, TX 77494 $311,185 2,445 sq. ft. $127
2018-05-17 Single Family Traditional 20522 Red Sun Drive Katy, TX 77449 $210,000 2,473 sq. ft. 6,534 sq. ft. $85
2018-05-17 Single Family Traditional 6842 Prairie Village Drive Katy, TX 77449 $99,950 1,350 sq. ft. 6,534 sq. ft. $74
2018-05-17 Single Family Traditional 6014 Prescott Run Lane Katy, TX 77494 $325,000 3,298 sq. ft. 6,098 sq. ft. $99
2018-05-16 Single Family Traditional 28715 Fitzroy Harbour Drive Katy, TX 77494 $333,830 3,262 sq. ft. $102
2018-05-16 Single Family Traditional 19622 Buckland Park Drive Katy, TX 77449 $173,000 1,698 sq. ft. 4,792 sq. ft. $102
2018-05-16 Single Family Traditional 21303 Slate Crossing Lane Katy, TX 77449 $207,000 1,927 sq. ft. 6,534 sq. ft. $107
2018-05-16 Single Family Traditional 3327 Trent Stone Lane Katy, TX 77449 $190,000 2,063 sq. ft. 5,227 sq. ft. $92
2018-05-16 Single Family Traditional 306 Bauxhall Court Katy, TX 77450 $284,900 3,101 sq. ft. 8,276 sq. ft. $92
2018-05-16 Single Family Mediterranean; Traditional 3610 Meandering Spring Drive Katy, TX 77494 $975,000 5,976 sq. ft. 12,632 sq. ft. $163
2018-05-16 Single Family Traditional 6914 Crane Court Katy, TX 77493 $470,900 3,397 sq. ft. 7,405 sq. ft. $139
2018-05-16 Single Family Traditional 26710 Eagle Park Lane Katy, TX 77494 $449,900 4,495 sq. ft. 6,970 sq. ft. $100
2018-05-16 Single Family Contemporary/Modern 8307 Red Rooster Lane Katy, TX 77494 $359,000 3,152 sq. ft. 8,712 sq. ft. $114
2018-05-16 Single Family Traditional 23231 Dewflower Drive Katy, TX 77494 $349,900 2,639 sq. ft. 7,405 sq. ft. $133
2018-05-16 Single Family Traditional 3735 Rocky Ledge Lane Katy, TX 77494 $230,000 1,864 sq. ft. 6,534 sq. ft. $123
2018-05-16 Single Family Traditional 24014 Adobe Ridge Lane Katy, TX 77493 $245,000 2,206 sq. ft. 5,663 sq. ft. $111
2018-05-16 Single Family Traditional 3122 Saddlebrook Circle Katy, TX 77494 $1,750,000 4,622 sq. ft. 138,956 sq. ft. $379
2018-05-16 Single Family Traditional 1902 Bevington Oaks Circle Katy, TX 77450 $285,000 3,430 sq. ft. 6,970 sq. ft. $83
2018-05-16 Single Family Traditional 2547 Pepperidge Drive Katy, TX 77494 $272,000 2,341 sq. ft. 8,276 sq. ft. $116
2018-05-16 Single Family Traditional 21311 Park Mount Drive Katy, TX 77450 $150,000 1,923 sq. ft. 7,405 sq. ft. $78
2018-05-16 Single Family Traditional 24207 Haywards Crossing Lane Katy, TX 77494 $257,000 2,016 sq. ft. 6,970 sq. ft. $127
2018-05-16 Single Family Traditional 25226 Melody Oaks Lane Katy, TX 77494 $208,990 2,162 sq. ft. 5,663 sq. ft. $97
2018-05-16 Single Family Traditional 21402 Park Willow Drive Katy, TX 77450 $197,000 2,136 sq. ft. 7,841 sq. ft. $92
2018-05-16 Single Family Traditional 20010 Sky Hollow Lane Katy, TX 77450 $649,900 6,213 sq. ft. 12,632 sq. ft. $105
2018-05-16 Single Family Traditional 21122 Kelliwood Park Lane Katy, TX 77450 $520,000 3,503 sq. ft. 13,504 sq. ft. $148
2018-05-16 Single Family Traditional 23711 Covington Lake Court Katy, TX 77493 $558,001 4,183 sq. ft. $133
2018-05-16 Single Family Traditional 3230 Eagles Knoll Court Katy, TX 77494 $360,000 2,996 sq. ft. 9,583 sq. ft. $120
2018-05-16 Single Family Traditional 1639 Pickford Knolls Katy, TX 77494 $299,795 2,789 sq. ft. $107
2018-05-16 Single Family Traditional 3647 Heartland Key Lane Katy, TX 77494 $395,000 3,072 sq. ft. 12,197 sq. ft. $129
2018-05-16 Single Family Traditional 24430 Cornell Park Lane Katy, TX 77494 $260,000 3,462 sq. ft. 5,663 sq. ft. $75
2018-05-16 Single Family Traditional 4506 Mondial Drive Katy, TX 77493 $257,000 2,111 sq. ft. 7,405 sq. ft. $122
2018-05-16 Single Family Traditional 2907 Canyonview Court Court Katy, TX 77450 $249,900 1,674 sq. ft. 6,534 sq. ft. $149
2018-05-16 Single Family Traditional 19907 Fairgrange Place Lane Katy, TX 77449 $159,000 1,389 sq. ft. 4,792 sq. ft. $114
2018-05-16 Single Family Traditional 5906 Copinsay Drive Katy, TX 77449 $166,000 1,216 sq. ft. 5,663 sq. ft. $137
2018-05-16 Single Family Contemporary/Modern 25402 Estes Lake Lane Katy, TX 77494 $1,475,000 5,945 sq. ft. 22,216 sq. ft. $248
2018-05-16 Single Family Traditional 20515 Ivory Creek Lane Katy, TX 77450 $374,900 2,768 sq. ft. 8,276 sq. ft. $135
2018-05-16 Single Family Traditional 22731 Indian Ridge Drive Katy, TX 77450 $190,000 1,932 sq. ft. 7,405 sq. ft. $98
2018-05-16 Single Family Traditional 26822 Harmony Shores Drive Katy, TX 77494 $239,900 2,000 sq. ft. 6,534 sq. ft. $120
2018-05-16 Single Family Traditional 28134 Yellow Cornerstone Drive Katy, TX 77494 $430,000 3,771 sq. ft. 11,761 sq. ft. $114
2018-05-16 Single Family Traditional 23206 Willow Pond Place Katy, TX 77494 $279,900 2,515 sq. ft. 10,890 sq. ft. $111
2018-05-16 Single Family Traditional 6303 Denison Oaks Drive Katy, TX 77494 $289,000 2,678 sq. ft. 6,098 sq. ft. $108
2018-05-16 Single Family Traditional 3506 Harper Ferry Place Drive Katy, TX 77494 $397,344 3,077 sq. ft. $129
2018-05-16 Single Family Traditional 6326 Old Hickory Street Katy, TX 77449 $244,900 2,630 sq. ft. 7,841 sq. ft. $93
2018-05-16 Single Family Traditional 5006 Ivy Fair Way Katy, TX 77449 $183,500 1,945 sq. ft. 4,792 sq. ft. $94
2018-05-15 Single Family Traditional 28903 Golden Spike Court Katy, TX 77494 $376,518 3,508 sq. ft. $107
2018-05-15 Single Family Traditional 1827 Vanderwilt Lane Katy, TX 77449 $189,900 1,914 sq. ft. 7,841 sq. ft. $99
2018-05-15 Single Family Traditional 9607 Moonstone Mist Lane Katy, TX 77494 $369,900 3,443 sq. ft. 9,148 sq. ft. $107
2018-05-15 Single Family Traditional 20635 Castle Bend Drive Katy, TX 77450 $330,000 2,912 sq. ft. 7,841 sq. ft. $113
2018-05-15 Single Family Ranch; Traditional 3831 Palmer Meadow Court Katy, TX 77494 $255,425 1,974 sq. ft. $129
2018-05-15 Single Family Traditional 21314 Park Valley Drive Katy, TX 77450 $225,000 2,184 sq. ft. 7,841 sq. ft. $103
2018-05-15 Single Family Traditional 3015 Rainmont Lane Katy, TX 77449 $195,500 1,779 sq. ft. 6,534 sq. ft. $110
2018-05-15 Single Family Traditional 24815 Trailstone Court Katy, TX 77494 $264,900 2,434 sq. ft. 6,970 sq. ft. $109
2018-05-15 Single Family Traditional 6931 Morning Sky Katy, TX 77494 $310,000 2,717 sq. ft. 8,276 sq. ft. $114
2018-05-15 Single Family Ranch 2947 Veeder Pass Katy, TX 77494 $219,990 1,836 sq. ft. $120
2018-05-15 Single Family Ranch 2910 Sloat Hill Katy, TX 77494 $215,990 1,566 sq. ft. $138
2018-05-15 Single Family Ranch 3007 Erickson Manor Katy, TX 77494 $222,990 1,871 sq. ft. $119
2018-05-15 Single Family Traditional 2603 Country Lane Katy, TX 77493 $382,990 3,042 sq. ft. $126
2018-05-15 Single Family Ranch 22735 Cascade Springs Drive Katy, TX 77494 $349,000 2,709 sq. ft. 6,534 sq. ft. $129
2018-05-15 Single Family Traditional 23002 Greenrush Drive Katy, TX 77494 $330,000 3,006 sq. ft. 7,841 sq. ft. $110
2018-05-15 Single Family Traditional 2018 Shadow Park Drive Katy, TX 77494 $340,000 2,885 sq. ft. 7,405 sq. ft. $118
2018-05-15 Single Family Ranch 29522 Patricias Way Katy, TX 77494 $237,990 2,036 sq. ft. $117
2018-05-15 Single Family Traditional 2614 Country Ln Katy, TX 77493 $394,990 2,922 sq. ft. $135
2018-05-15 Single Family Traditional 3814 Raintree Village Drive Katy, TX 77449 $209,990 1,840 sq. ft. 6,534 sq. ft. $114
2018-05-15 Single Family Traditional 20307 Ranch Riata Drive Katy, TX 77449 $189,000 2,274 sq. ft. 6,098 sq. ft. $83
2018-05-15 Single Family Contemporary/Modern 29206 Rock Daisy Court Katy, TX 77494 $420,000 3,791 sq. ft. 8,276 sq. ft. $111
2018-05-15 Single Family Traditional 2314 Crossmill Lane Katy, TX 77450 $255,000 2,791 sq. ft. 6,970 sq. ft. $91
2018-05-15 Single Family Traditional 6907 Thomas Tr Katy, TX 77493 $384,990 3,101 sq. ft. $124
2018-05-15 Single Family Traditional 20455 Blue Beech Drive Katy, TX 77449 $168,000 1,480 sq. ft. 6,098 sq. ft. $114
2018-05-15 Single Family Traditional 2903 Chapel Rock Court Katy, TX 77494 $590,625 4,587 sq. ft. 9,583 sq. ft. $129
2018-05-15 Single Family Traditional 3731 Goldleaf Trail Drive Katy, TX 77449 $186,400 1,495 sq. ft. 7,405 sq. ft. $125
2018-05-15 Single Family Traditional 19103 Treemill Court Katy, TX 77449 $219,900 2,489 sq. ft. 10,019 sq. ft. $88
2018-05-15 Single Family Traditional 4702 Lonestone Circle Katy, TX 77449 $159,950 1,402 sq. ft. 5,227 sq. ft. $114
2018-05-15 Single Family Traditional 2114 Wheathall Camp Lane Katy, TX 77449 $140,000 1,245 sq. ft. 6,098 sq. ft. $112
2018-05-15 Single Family Traditional 20721 Patriot Park Lane Katy, TX 77449 $149,990 1,576 sq. ft. 3,049 sq. ft. $95
2018-05-15 Single Family Traditional 24526 Rathford Court Katy, TX 77494 $249,000 2,132 sq. ft. 11,326 sq. ft. $117
2018-05-14 Single Family Traditional 2931 Coastal Prairie Lane Katy, TX 77493 $285,000 2,983 sq. ft. 6,534 sq. ft. $96
2018-05-14 Single Family Traditional 5603 Sunfall Bend Lane Katy, TX 77449 $190,000 1,533 sq. ft. 5,663 sq. ft. $124
2018-05-14 Single Family Ranch; Traditional 3018 Francisco Bay Place Katy, TX 77494 $310,650 2,268 sq. ft. $137
2018-05-14 Single Family Traditional 4326 Vineyard Meadow Lane Katy, TX 77449 $215,000 2,524 sq. ft. 6,098 sq. ft. $85
2018-05-14 Single Family Traditional 2903 Silver Cedar Trail Katy, TX 77449 $174,900 2,111 sq. ft. 6,970 sq. ft. $83
2018-05-14 Single Family Traditional 21106 Park Mount Drive Katy, TX 77450 $249,500 2,109 sq. ft. 7,405 sq. ft. $118
2018-05-14 Single Family Traditional 3207 Francisco Bay Place Katy, TX 77494 $286,355 2,445 sq. ft. $117
2018-05-14 Single Family Ranch; Traditional 3835 Palmer Meadows Court Katy, TX 77494 $279,275 2,268 sq. ft. $123
2018-05-14 Single Family Traditional 2810 Kestrel Trace Lane Katy, TX 77494 $365,000 3,171 sq. ft. 9,148 sq. ft. $115
2018-05-14 Single Family Mediterranean 23914 Coastal Meadow Katy, TX 77494 $775,000 5,275 sq. ft. 15,246 sq. ft. $147
2018-05-14 Single Family Traditional 5506 Casa Martin Drive Katy, TX 77449 $205,000 2,061 sq. ft. 5,663 sq. ft. $99
2018-05-14 Single Family Traditional 23222 San Salvador Place Katy, TX 77494 $695,000 4,341 sq. ft. 12,632 sq. ft. $160
2018-05-14 Single Family Traditional 6831 Pioneer Trail Katy, TX 77493 $416,160 2,662 sq. ft. 8,276 sq. ft. $156
2018-05-14 Single Family Traditional 2303 Channelwood Lane Katy, TX 77450 $282,000 2,947 sq. ft. 7,841 sq. ft. $96
2018-05-14 Single Family Traditional 22918 Roberts Run Lane Katy, TX 77494 $418,000 3,634 sq. ft. 8,712 sq. ft. $115
2018-05-14 Single Family Traditional 5010 Hickory Burl Court Katy, TX 77449 $214,990 2,614 sq. ft. 4,792 sq. ft. $82
2018-05-14 Single Family Traditional 22522 Country Cove Lane Katy, TX 77494 $480,000 3,158 sq. ft. 20,909 sq. ft. $152
2018-05-14 Single Family Contemporary/Modern 6911 Thomas Trail Katy, TX 77493 $379,990 2,786 sq. ft. $136
2018-05-14 Single Family Traditional 6423 Winthrop Terrace Katy, TX 77493 $359,900 2,341 sq. ft. $154
2018-05-14 Single Family Traditional 23926 Arcola Glen Katy, TX 77493 $486,900 3,381 sq. ft. $144
2018-05-14 Single Family Traditional 6422 Winthrop Terrace Katy, TX 77493 $464,900 2,975 sq. ft. $156
2018-05-14 Single Family Traditional 24915 Lakecrest Manor Drive Katy, TX 77493 $227,000 2,339 sq. ft. 6,098 sq. ft. $97
2018-05-14 Single Family Traditional 7115 Humble Court Katy, TX 77493 $585,000 4,066 sq. ft. $144
2018-05-14 Single Family Traditional 7119 Humble Court Katy, TX 77493 $570,000 3,632 sq. ft. $157
2018-05-14 Single Family Traditional 4710 Debras Trace Lane Katy, TX 77450 $369,000 3,019 sq. ft. 9,148 sq. ft. $122
2018-05-14 Single Family Traditional 19519 Briarsedge Court Katy, TX 77449 $265,000 2,626 sq. ft. 8,276 sq. ft. $101
2018-05-14 Single Family Traditional 3430 Duplin Creek Dr Katy, TX 77494 $380,000 3,227 sq. ft. 7,841 sq. ft. $118
2018-05-14 Single Family Traditional 29034 Endeavor River Road Katy, TX 77494 $374,990 2,770 sq. ft. $135
2018-05-14 Single Family Traditional 2010 Garden Terrace Drive Katy, TX 77494 $329,900 2,738 sq. ft. 7,405 sq. ft. $120
2018-05-14 Single Family Ranch 4730 Autumn Orchard Lane Katy, TX 77494 $280,000 2,101 sq. ft. 8,276 sq. ft. $133
2018-05-14 Single Family Traditional 19710 Buckland Park Drive Katy, TX 77449 $172,000 1,698 sq. ft. 4,792 sq. ft. $101
2018-05-14 Single Family Traditional 27827 Burchfield Grove Lane Katy, TX 77494 $499,900 3,804 sq. ft. 8,712 sq. ft. $131
2018-05-14 Single Family Traditional 25439 Hall Meadow Lane Katy, TX 77494 $315,800 2,784 sq. ft. 6,534 sq. ft. $113
2018-05-14 Single Family Traditional 23930 Griffin House Lane Katy, TX 77493 $135,000 1,240 sq. ft. 6,098 sq. ft. $109
2018-05-14 Single Family Traditional 28306 Peralta Preserve Lane Katy, TX 77494 $312,995 3,444 sq. ft. $91
2018-05-14 Single Family Traditional 25420 Devonshire Knoll Street Katy, TX 77493 $284,995 3,144 sq. ft. $91
2018-05-14 Single Family Traditional 7115 Prairie Grass Lane Katy, TX 77493 $568,784 3,793 sq. ft. 9,148 sq. ft. $150
2018-05-14 Single Family Traditional 22702 Bucktrout Lane Katy, TX 77449 $299,000 2,361 sq. ft. 9,583 sq. ft. $127
2018-05-14 Single Family Traditional 2926 Indwarra Ct Katy, TX 77494 $250,000 2,599 sq. ft. 9,148 sq. ft. $96
2018-05-14 Single Family Ranch 26622 Clear Mill Katy, TX 77494 $249,000 2,029 sq. ft. 6,534 sq. ft. $123
2018-05-14 Single Family Traditional 22510 Rangeview Drive Katy, TX 77450 $259,900 2,398 sq. ft. 7,841 sq. ft. $108
2018-05-14 Single Family Contemporary/Modern; Traditional 19110 Broadwind Lane Katy, TX 77449 $199,000 2,305 sq. ft. 4,792 sq. ft. $86
2018-05-14 Single Family Traditional 2627 Silky Court Katy, TX 77449 $239,000 2,070 sq. ft. 5,663 sq. ft. $115
2018-05-14 Single Family Traditional 23010 Tindarey Falls Lane Katy, TX 77493 $258,340 2,186 sq. ft. $118
2018-05-14 Single Family Traditional 23018 Tindarey Falls Lane Katy, TX 77493 $240,840 1,838 sq. ft. $131
2018-05-13 Single Family Contemporary/Modern; Traditional 6322 Grand Prominence Court Katy, TX 77494 $423,658 2,686 sq. ft. 6,534 sq. ft. $158
2018-05-13 Single Family Traditional 6327 Grand Prominence Court Katy, TX 77494 $489,918 3,935 sq. ft. 10,019 sq. ft. $124
2018-05-13 Single Family Contemporary/Modern 19315 Colony Grove Lane Katy, TX 77449 $197,900 2,431 sq. ft. 4,792 sq. ft. $81
2018-05-13 Single Family Traditional 4711 Stackstone Lane Katy, TX 77450 $449,000 3,755 sq. ft. 9,148 sq. ft. $120
2018-05-13 Single Family Ranch 6255 Piedra Negras Court Katy, TX 77450 $245,000 1,842 sq. ft. 7,841 sq. ft. $133
2018-05-13 Single Family Traditional 23639 Litchfield Bend Lane Katy, TX 77494 $420,000 3,626 sq. ft. 7,841 sq. ft. $116
2018-05-13 Single Family Traditional 26910 Harmony Shores Drive Katy, TX 77494 $362,900 4,044 sq. ft. 6,534 sq. ft. $90
2018-05-13 Single Family Traditional 6511 Everhill Circle Katy, TX 77450 $279,500 2,369 sq. ft. 6,970 sq. ft. $118
2018-05-12 Single Family Traditional 25118 Diamond Ranch Drive Katy, TX 77494 $205,000 1,638 sq. ft. 5,227 sq. ft. $125
2018-05-12 Single Family Traditional 3814 Bridgebay Lane Katy, TX 77449 $148,000 1,735 sq. ft. 6,098 sq. ft. $85
2018-05-12 Single Family Ranch 5318 Lantana Creek Court Katy, TX 77494 $244,100 1,730 sq. ft. 5,227 sq. ft. $141
2018-05-12 Single Family Traditional 6431 Garden Canyon Drive Katy, TX 77449 $160,000 1,378 sq. ft. 7,405 sq. ft. $116
2018-05-12 Single Family Traditional 5326 Friar Tuck Drive Katy, TX 77493 $150,000 1,506 sq. ft. 6,098 sq. ft. $100
2018-05-12 Single Family Ranch 5815 Ridgebluff Lane Katy, TX 77449 $180,000 1,833 sq. ft. 7,405 sq. ft. $98
2018-05-12 Single Family Traditional 19619 Green Oasis Court Katy, TX 77449 $230,000 2,267 sq. ft. 5,227 sq. ft. $101
2018-05-12 Single Family Traditional 535 Asheboro Drive Katy, TX 77450 $219,500 1,694 sq. ft. 7,841 sq. ft. $130
2018-05-12 Single Family Spanish 3619 Meandering Spring Katy, TX 77494 $659,000 4,362 sq. ft. 13,068 sq. ft. $151
2018-05-12 Single Family Traditional 20646 Laverton Drive Katy, TX 77450 $335,000 3,429 sq. ft. 9,583 sq. ft. $98
2018-05-12 Single Family Contemporary/Modern 3622 Fieldthorne Court Katy, TX 77450 $415,000 3,303 sq. ft. 9,148 sq. ft. $126
2018-05-12 Single Family Traditional 7610 Breezeway Bend Lane Katy, TX 77494 $599,000 3,818 sq. ft. 20,909 sq. ft. $157
2018-05-12 Single Family Traditional 25927 Hunter Lane Katy, TX 77494 $250,000 2,176 sq. ft. 39,204 sq. ft. $115
2018-05-12 Single Family Contemporary/Modern 26943 Churchill Gate Lane Katy, TX 77494 $290,000 2,461 sq. ft. 6,098 sq. ft. $118
2018-05-12 Single Family Traditional 911 Crossfield Drive Katy, TX 77450 $262,000 1,900 sq. ft. 8,276 sq. ft. $138
2018-05-12 Single Family Traditional 3006 Malope Ranch Drive Katy, TX 77494 $239,000 2,076 sq. ft. 5,227 sq. ft. $115
2018-05-12 Single Family Traditional 1507 Avenue A Katy, TX 77493 $230,000 1,435 sq. ft. 10,890 sq. ft. $160
2018-05-12 Single Family Traditional 20822 Avery Cove Lane Katy, TX 77450 $262,000 2,031 sq. ft. 6,970 sq. ft. $129
2018-05-12 Single Family Traditional 6110 Grand Shores Court Katy, TX 77494 $319,500 2,798 sq. ft. 8,276 sq. ft. $114
2018-05-12 Single Family Traditional 4123 Misty Waters Lane Katy, TX 77494 $350,000 3,383 sq. ft. 6,970 sq. ft. $103
2018-05-12 Single Family Traditional 1310 Wildwood Lane Katy, TX 77494 $440,000 3,364 sq. ft. 10,890 sq. ft. $131
2018-05-12 Single Family Traditional 19515 Fernhaven Drive Katy, TX 77449 $185,000 1,957 sq. ft. 6,970 sq. ft. $95
2018-05-12 Single Family Traditional 6325 Fawnlake Drive Katy, TX 77493 $290,000 2,313 sq. ft. 7,841 sq. ft. $125
2018-05-11 Single Family Traditional 26711 Cedardale Pines Drive Katy, TX 77494 $519,900 4,196 sq. ft. 10,454 sq. ft. $124
2018-05-11 Single Family Split Level 22002 Westerpine Lane Katy, TX 77449 $203,999 2,278 sq. ft. 53,143 sq. ft. $90
2018-05-11 Single Family Contemporary/Modern 26906 Monarch Valley Katy, TX 77494 $455,000 3,703 sq. ft. 10,454 sq. ft. $123
2018-05-11 Single Family Traditional 22903 Red River Drive Katy, TX 77450 $249,900 2,420 sq. ft. 8,712 sq. ft. $103
2018-05-11 Single Family Traditional 19603 Golden Willow Drive Katy, TX 77449 $205,000 2,206 sq. ft. 6,970 sq. ft. $93
2018-05-11 Single Family Traditional 27006 Franklin Park Drive Katy, TX 77494 $485,000 3,504 sq. ft. 8,712 sq. ft. $138
2018-05-11 Single Family Traditional 1114 Rennie Drive Katy, TX 77450 $259,900 2,503 sq. ft. 7,841 sq. ft. $104
2018-05-11 Single Family Traditional 6318 Indiangrass Court Katy, TX 77494 $600,000 4,225 sq. ft. 13,939 sq. ft. $142
2018-05-11 Single Family Traditional 6514 New World Drive Katy, TX 77449 $139,900 1,272 sq. ft. 6,970 sq. ft. $110
2018-05-11 Single Family Traditional 5415 Montbury Lane Katy, TX 77450 $380,000 3,481 sq. ft. 7,841 sq. ft. $109
2018-05-11 Single Family Traditional 3039 Dripping Springs Court Katy, TX 77494 $259,000 2,036 sq. ft. 6,534 sq. ft. $127
2018-05-11 Single Family Traditional 4502 Middleoak Grove Lane Katy, TX 77494 $355,000 3,090 sq. ft. 7,405 sq. ft. $115
2018-05-11 Single Family Ranch; Traditional 25830 Hunter Lane Katy, TX 77494 $1,350,000 5,200 sq. ft. 39,204 sq. ft. $260
2018-05-11 Single Family Other Style 28123 N Firethorne Road Katy, TX 77494 $530,000 4,199 sq. ft. 16,988 sq. ft. $126
2018-05-11 Single Family Traditional 25407 Melody Canyon Court Katy, TX 77494 $299,000 2,611 sq. ft. 9,148 sq. ft. $115
2018-05-11 Single Family Traditional 22506 Wolfs Meadow Lane Katy, TX 77494 $619,000 4,206 sq. ft. 21,780 sq. ft. $147
2018-05-11 Single Family Traditional 9631 Amber Bluff Lane Katy, TX 77494 $316,500 2,719 sq. ft. 6,098 sq. ft. $116
2018-05-11 Single Family Traditional 3106 Oxbridge Court Katy, TX 77449 $225,000 2,616 sq. ft. 9,148 sq. ft. $86
2018-05-11 Single Family Traditional 21034 Carmel Valley Drive Katy, TX 77449 $165,000 1,741 sq. ft. 6,970 sq. ft. $95
2018-05-11 Single Family Traditional 22122 Birch Valley Drive Katy, TX 77450 $184,000 1,560 sq. ft. 6,970 sq. ft. $118
2018-05-11 Single Family Traditional 22207 Indigo Pines Lane Katy, TX 77450 $660,000 4,745 sq. ft. 10,454 sq. ft. $139
2018-05-11 Single Family Traditional 3203 Hawkins Glen Lane Katy, TX 77449 $329,999 3,325 sq. ft. 9,583 sq. ft. $99
2018-05-11 Single Family Traditional 7227 Agave Drive Katy, TX 77494 $260,000 2,132 sq. ft. 7,841 sq. ft. $122
2018-05-11 Single Family Traditional 4111 Chablis Ridge Court Katy, TX 77449 $199,990 1,822 sq. ft. 5,663 sq. ft. $110
2018-05-11 Single Family Traditional 19815 Cannon Fire Drive Katy, TX 77449 $179,000 1,679 sq. ft. 5,227 sq. ft. $107
2018-05-11 Single Family Traditional 20054 Silver Rock Drive Katy, TX 77449 $199,000 2,966 sq. ft. 6,098 sq. ft. $67
2018-05-11 Single Family Traditional 4110 Songbury Circle Katy, TX 77494 $595,000 4,785 sq. ft. 10,890 sq. ft. $124
2018-05-11 Single Family Traditional 4214 Morning Willow Drive Katy, TX 77450 $459,500 3,483 sq. ft. 12,632 sq. ft. $132
2018-05-11 Single Family Traditional 27406 Middlesprings Lane Katy, TX 77494 $415,000 3,442 sq. ft. 7,405 sq. ft. $121
2018-05-11 Single Family Traditional 25918 Orchard Knoll Lane Katy, TX 77494 $279,500 2,630 sq. ft. 6,534 sq. ft. $106
2018-05-11 Single Family English; Traditional 714 Cramer Court Katy, TX 77450 $274,900 2,299 sq. ft. 8,712 sq. ft. $120
2018-05-11 Single Family Traditional 24119 Laureumont Court Katy, TX 77494 $395,000 2,496 sq. ft. 13,068 sq. ft. $158
2018-05-11 Single Family French 1310 Sherfield Ridge Drive Katy, TX 77450 $285,000 2,540 sq. ft. 7,841 sq. ft. $112
2018-05-11 Single Family Traditional 23734 Welch House Lane Katy, TX 77493 $174,500 1,636 sq. ft. 6,534 sq. ft. $107
2018-05-11 Single Family Traditional 2323 Riata Park Ct Katy, TX 77494 $569,000 4,947 sq. ft. 11,326 sq. ft. $115
2018-05-11 Single Family Traditional 5638 Timber Bay Court Katy, TX 77450 $396,000 3,685 sq. ft. 9,148 sq. ft. $107
2018-05-11 Single Family Traditional 4914 Sandalia Court Katy, TX 77494 $255,000 2,219 sq. ft. 6,970 sq. ft. $115
2018-05-11 Single Family Traditional 1510 Wheatley Hill Lane Katy, TX 77494 $238,995 2,130 sq. ft. $112
2018-05-11 Single Family Traditional 4515 Candlewood Park Lane Katy, TX 77494 $720,000 4,123 sq. ft. 12,197 sq. ft. $175
2018-05-11 Single Family Ranch 2014 Pinecreek Pass Lane Katy, TX 77449 $196,000 1,904 sq. ft. 6,534 sq. ft. $103
2018-05-11 Single Family Traditional 2711 Lakecrest Forest Drive Katy, TX 77493 $264,900 2,432 sq. ft. 5,663 sq. ft. $109
2018-05-11 Single Family Traditional 3218 Wimberly Place Lane Katy, TX 77494 $620,000 4,216 sq. ft. 10,454 sq. ft. $147
2018-05-11 Single Family Traditional 23818 River Place Drive Katy, TX 77494 $289,000 2,629 sq. ft. 5,663 sq. ft. $110
2018-05-11 Single Family Traditional 5803 Silkbay Meadow Drive Katy, TX 77494 $489,900 3,578 sq. ft. 10,019 sq. ft. $137
2018-05-10 Single Family Traditional 26711 Grey Swan Drive Katy, TX 77494 $359,900 3,232 sq. ft. 8,276 sq. ft. $111
2018-05-10 Single Family Traditional 28827 Hollycrest Drive Katy, TX 77494 $350,000 3,017 sq. ft. 7,841 sq. ft. $116
2018-05-10 Single Family Traditional 4823 Terrance Fall Drive Katy, TX 77494 $330,000 2,975 sq. ft. 6,534 sq. ft. $111
2018-05-10 Single Family Traditional 6314 Columbia Falls Lane Katy, TX 77450 $360,000 2,935 sq. ft. 7,841 sq. ft. $123
2018-05-10 Single Family Ranch; Traditional 22727 Saginaw Point Lane Katy, TX 77449 $210,000 1,800 sq. ft. 7,405 sq. ft. $117
2018-05-10 Single Family Traditional 3623 Bridgebluff Lane Katy, TX 77449 $199,000 2,020 sq. ft. 5,227 sq. ft. $99
2018-05-10 Single Family Traditional 10407 Radcliff Lake Drive Katy, TX 77494 $550,000 4,341 sq. ft. 8,712 sq. ft. $127
2018-05-10 Single Family Traditional 22603 Water Edge Lane Katy, TX 77494 $415,000 3,110 sq. ft. 9,148 sq. ft. $133
2018-05-10 Single Family Traditional 5218 Kingship Court Katy, TX 77493 $375,000 3,351 sq. ft. 10,454 sq. ft. $112
2018-05-10 Single Family Traditional 26511 Green Heron Drive Katy, TX 77494 $235,000 2,243 sq. ft. $105
2018-05-10 Single Family Traditional 3826 Bell Hollow Lane Katy, TX 77494 $609,900 4,558 sq. ft. 12,632 sq. ft. $134
2018-05-10 Single Family Traditional 3015 Hollinwell Drive Katy, TX 77450 $475,000 3,768 sq. ft. 10,890 sq. ft. $126
2018-05-10 Single Family Traditional 5707 Ashley Spring Court Katy, TX 77494 $398,000 3,496 sq. ft. $114
2018-05-10 Single Family Traditional 5335 Regal Gem Lane Katy, TX 77493 $359,759 3,602 sq. ft. 10,890 sq. ft. $100
2018-05-10 Single Family Traditional 21206 Willowford Park Drive Katy, TX 77450 $349,900 3,486 sq. ft. 9,148 sq. ft. $100
2018-05-10 Single Family Traditional 4022 Meadow Lilly Lane Katy, TX 77449 $215,000 1,986 sq. ft. 14,375 sq. ft. $108
2018-05-10 Single Family Traditional 5102 Grand Vista Lane Katy, TX 77494 $629,900 4,582 sq. ft. 22,651 sq. ft. $137
2018-05-10 Single Family Traditional 3522 Daniel Falls Lane Katy, TX 77449 $259,990 2,738 sq. ft. 6,098 sq. ft. $95
2018-05-10 Single Family Traditional 914 Golden West Drive Katy, TX 77450 $139,900 1,641 sq. ft. 5,663 sq. ft. $85
2018-05-10 Single Family Traditional 20606 Palm Rain Court Katy, TX 77449 $237,000 2,059 sq. ft. 9,583 sq. ft. $115
2018-05-10 Single Family Traditional 6011 Brunson Grove Drive Katy, TX 77494 $235,000 2,160 sq. ft. 6,098 sq. ft. $109
2018-05-10 Single Family Contemporary/Modern 22523 Carter Moir Lane Katy, TX 77449 $169,900 1,340 sq. ft. 6,098 sq. ft. $127
2018-05-10 Single Family Traditional 6418 Bonnie Chase Lane Katy, TX 77449 $175,000 1,972 sq. ft. 5,663 sq. ft. $89
2018-05-10 Single Family Traditional 23935 Birchwood Lake Lane Katy, TX 77493 $500,000 4,117 sq. ft. $121
2018-05-10 Single Family Traditional 7203 Yardley Drive Katy, TX 77494 $229,000 1,846 sq. ft. 7,405 sq. ft. $124
2018-05-10 Single Family Traditional 4506 Kelliwood Manor Lane Katy, TX 77450 $500,000 3,563 sq. ft. 10,454 sq. ft. $140
2018-05-10 Single Family Traditional 4302 Bay Wind Katy, TX 77494 $385,000 3,665 sq. ft. 7,841 sq. ft. $105
2018-05-10 Single Family Traditional 1234 Rustic Knolls Drive Katy, TX 77450 $315,000 2,825 sq. ft. 7,405 sq. ft. $112
2018-05-10 Single Family Traditional 29007 Erica Lee Court Katy, TX 77494 $279,000 2,472 sq. ft. 8,276 sq. ft. $113
2018-05-10 Single Family Traditional 606 Admiral Bay Lane Katy, TX 77494 $220,000 2,128 sq. ft. 6,970 sq. ft. $103
2018-05-10 Single Family Traditional 5407 Bear Hunters Drive Katy, TX 77449 $225,000 3,178 sq. ft. 6,098 sq. ft. $71
2018-05-10 Single Family Traditional 4119 Sea Meadow Court Katy, TX 77449 $169,000 1,472 sq. ft. 6,534 sq. ft. $115
2018-05-10 Single Family Traditional 24731 Mount Auburn Drive Katy, TX 77494 $365,000 3,016 sq. ft. 10,890 sq. ft. $121
2018-05-10 Single Family Traditional 23102 Tindarey Falls Lane Katy, TX 77493 $222,090 1,838 sq. ft. $121
2018-05-10 Single Family Traditional 8623 Shambala Way Katy, TX 77494 $699,900 4,615 sq. ft. $152
2018-05-10 Single Family Traditional 28423 Tall Juniper Hill Drive Katy, TX 77494 $657,000 4,843 sq. ft. 10,890 sq. ft. $136
2018-05-10 Single Family Traditional 26619 Boulder Cove Court Katy, TX 77494 $399,999 3,361 sq. ft. 8,712 sq. ft. $119
2018-05-10 Single Family Traditional 23606 Darling Creek Lane Katy, TX 77449 $487,900 3,798 sq. ft. 9,583 sq. ft. $128
2018-05-10 Single Family Traditional 6402 Kingston Valley Trail Katy, TX 77449 $449,900 3,794 sq. ft. 9,583 sq. ft. $119
2018-05-10 Single Family Traditional 23623 Greenwood Springs Place Katy, TX 77449 $480,900 3,322 sq. ft. 11,326 sq. ft. $145
2018-05-10 Single Family Traditional 9619 Lavender Mist Lane Katy, TX 77494 $399,000 3,411 sq. ft. 9,583 sq. ft. $117
2018-05-10 Single Family Traditional 5802 Dusty Heath Court Katy, TX 77450 $379,900 3,931 sq. ft. 10,019 sq. ft. $97
2018-05-10 Single Family Traditional 4814 Cinco Forest Trail Katy, TX 77494 $490,000 3,909 sq. ft. 8,712 sq. ft. $125
2018-05-10 Single Family Traditional 21019 Kelliwood Grove Lane Katy, TX 77450 $422,500 3,250 sq. ft. 10,019 sq. ft. $130
2018-05-10 Single Family Traditional 2210 Blue Water Bay Drive Katy, TX 77494 $319,900 2,411 sq. ft. 8,712 sq. ft. $133
2018-05-10 Single Family Traditional 6214 Barkermist Lane Katy, TX 77450 $259,000 2,414 sq. ft. 6,534 sq. ft. $107
2018-05-10 Single Family Traditional 26919 Harwood Heights Drive Katy, TX 77494 $254,000 2,557 sq. ft. 6,534 sq. ft. $99
2018-05-10 Single Family Traditional 20519 Indian Grove Ln Lane Katy, TX 77450 $259,000 2,176 sq. ft. 7,841 sq. ft. $119
2018-05-10 Single Family Traditional 18202 Linden Forest Lane Katy, TX 77449 $270,000 3,344 sq. ft. 7,841 sq. ft. $81
2018-05-10 Single Family Traditional 6021 Whispering Lakes Katy, TX 77493 $299,000 4,148 sq. ft. 10,890 sq. ft. $72
2018-05-10 Single Family Traditional 6915 Pembrough Lane Katy, TX 77494 $224,900 2,036 sq. ft. 11,326 sq. ft. $110
2018-05-10 Single Family Traditional 21218 Park Run Drive Katy, TX 77450 $239,000 2,458 sq. ft. 7,405 sq. ft. $97
2018-05-10 Single Family Contemporary/Modern 3335 Lakeland Gardens Drive Katy, TX 77449 $186,900 1,601 sq. ft. 6,098 sq. ft. $117
2018-05-10 Single Family Traditional 6539 Autumn Thistle Drive Katy, TX 77449 $179,900 2,194 sq. ft. 5,227 sq. ft. $82
2018-05-10 Single Family Traditional 3010 Winchester Ranch Trail Katy, TX 77493 $199,500 2,690 sq. ft. 5,227 sq. ft. $74
2018-05-09 Single Family Traditional 2710 Carlson Manor Drive Katy, TX 77494 $660,000 4,199 sq. ft. 9,583 sq. ft. $157
2018-05-09 Single Family Traditional 27911 Rumson Drive Katy, TX 77494 $628,000 4,351 sq. ft. 11,761 sq. ft. $144
2018-05-09 Single Family Traditional 3811 Trailstone Lane Katy, TX 77494 $530,000 3,907 sq. ft. 10,454 sq. ft. $136
2018-05-09 Single Family Traditional 21038 Kelliwood Park Lane Katy, TX 77450 $585,000 4,899 sq. ft. 11,761 sq. ft. $119
2018-05-09 Single Family Traditional 4706 Deermeadow Falls Lane Katy, TX 77494 $535,200 4,460 sq. ft. 9,148 sq. ft. $120
2018-05-09 Single Family Traditional 1911 Sparrows Ridge Katy, TX 77450 $774,500 4,859 sq. ft. 13,504 sq. ft. $159
2018-05-09 Single Family Traditional 4622 Middleoak Grove Lane Katy, TX 77494 $499,000 4,343 sq. ft. 10,019 sq. ft. $115
2018-05-09 Single Family Traditional 24906 Meadowthorn Crest Lane Katy, TX 77494 $427,042 4,054 sq. ft. 9,148 sq. ft. $105
2018-05-09 Single Family Traditional 20610 Barkston Court Katy, TX 77450 $389,000 3,501 sq. ft. 10,019 sq. ft. $111
2018-05-09 Single Family Traditional 6750 Pioneer Katy, TX 77493 $370,120 2,770 sq. ft. 6,970 sq. ft. $134
2018-05-09 Single Family Traditional 27338 Onslow Run Drive Katy, TX 77494 $418,900 3,736 sq. ft. 7,405 sq. ft. $112
2018-05-09 Single Family Traditional 28114 Middlewater View Lane Katy, TX 77494 $339,500 2,745 sq. ft. 12,197 sq. ft. $124
2018-05-09 Single Family Traditional 2718 Kittansett Circle Katy, TX 77450 $325,000 2,299 sq. ft. 6,098 sq. ft. $141
2018-05-09 Single Family Traditional 25110 Dunbrook Springs Lane Katy, TX 77494 $366,886 2,689 sq. ft. 7,405 sq. ft. $136
2018-05-09 Single Family Traditional 2610 Cotton Drive Katy, TX 77493 $367,559 2,518 sq. ft. 7,405 sq. ft. $146
2018-05-09 Single Family Traditional 26922 Raven Hill Lane Katy, TX 77494 $369,862 2,594 sq. ft. 10,890 sq. ft. $143
2018-05-09 Single Family Traditional 2310 Osprey Park Katy, TX 77494 $375,000 3,701 sq. ft. $101
2018-05-09 Single Family Traditional 25819 Bayou Arbor Lane Katy, TX 77494 $325,000 3,076 sq. ft. 8,712 sq. ft. $106
2018-05-09 Single Family Traditional 28303 Pence Cliff Court Katy, TX 77494 $360,000 3,898 sq. ft. 15,246 sq. ft. $92
2018-05-09 Single Family Traditional 5002 Castle Discordia Street Katy, TX 77493 $297,995 3,144 sq. ft. $95
2018-05-09 Single Family Traditional 21662 Highland Knolls Drive Katy, TX 77450 $299,000 2,160 sq. ft. 7,405 sq. ft. $138
2018-05-09 Single Family Traditional 3510 Paganini Place Katy, TX 77493 $257,590 2,125 sq. ft. $121
2018-05-09 Single Family Traditional 3502 Paganini Place Katy, TX 77493 $268,590 2,628 sq. ft. $102
2018-05-09 Single Family Traditional 4523 Valley Rill Road Katy, TX 77449 $244,880 1,937 sq. ft. $126
2018-05-09 Single Family Traditional 2402 Deerfield Drive Katy, TX 77493 $225,000 1,899 sq. ft. 7,405 sq. ft. $118
2018-05-09 Single Family Traditional 2658 Ensbrook Meadow Lane Katy, TX 77449 $220,000 2,160 sq. ft. 4,792 sq. ft. $102
2018-05-09 Single Family Traditional 24707 Scarlatti Cantata Katy, TX 77493 $221,590 2,752 sq. ft. 5,227 sq. ft. $81
2018-05-09 Single Family Traditional 3530 Vivaldi Drive Katy, TX 77493 $244,590 2,232 sq. ft. 6,534 sq. ft. $110
2018-05-09 Single Family Traditional 4359 Vineyard Mdw Lane Katy, TX 77449 $228,000 2,737 sq. ft. 6,534 sq. ft. $83
2018-05-09 Single Family Traditional 22719 Garden Canyon Drive Katy, TX 77450 $205,000 1,798 sq. ft. 9,148 sq. ft. $114
2018-05-09 Single Family Traditional 24615 Scarlatti Cantata Drive Katy, TX 77493 $227,590 1,936 sq. ft. $118
2018-05-09 Single Family Traditional 24703 Scarlatti Cantata Drive Katy, TX 77493 $237,462 2,232 sq. ft. $106
2018-05-09 Single Family Traditional 3519 Paganini Place Katy, TX 77493 $239,590 2,331 sq. ft. $103
2018-05-09 Single Family Traditional 23727 Ayscough Lane Katy, TX 77493 $199,999 2,072 sq. ft. 6,534 sq. ft. $97
2018-05-09 Single Family Traditional 6810 Strathmore Place Court Katy, TX 77449 $184,500 1,600 sq. ft. 4,356 sq. ft. $115
2018-05-09 Single Family Traditional 21426 River Court Drive Katy, TX 77449 $162,000 2,256 sq. ft. 7,405 sq. ft. $72
2018-05-09 Single Family Traditional 20622 Boxridge Lane Katy, TX 77449 $149,900 1,160 sq. ft. 5,227 sq. ft. $129
2018-05-09 Single Family Traditional 2814 Willow Fork Drive Katy, TX 77450 $295,000 2,676 sq. ft. 6,098 sq. ft. $110
2018-05-09 Single Family Traditional 24543 Foxberry Glen Lane Katy, TX 77494 $285,000 2,474 sq. ft. 5,227 sq. ft. $115
2018-05-09 Single Family Traditional 22518 Crescent Cove Court Katy, TX 77494 $480,000 3,169 sq. ft. 9,148 sq. ft. $151
2018-05-09 Single Family Traditional 23106 Tindarey Falls Lane Katy, TX 77493 $242,740 1,838 sq. ft. $132
2018-05-08 Single Family Traditional 6403 Bennington Spgs Drive Katy, TX 77494 $255,000 2,509 sq. ft. 6,098 sq. ft. $102
2018-05-08 Single Family Colonial 1422 Fry Road Katy, TX 77450 $827,000 6,600 sq. ft. 28,750 sq. ft. $125
2018-05-08 Single Family Contemporary/Modern 9406 Herons Grove Lane Katy, TX 77494 $248,995 2,719 sq. ft. 7,841 sq. ft. $92
2018-05-08 Single Family Traditional 4707 Payton Chase Lane Katy, TX 77494 $589,900 4,739 sq. ft. 10,019 sq. ft. $124
2018-05-08 Single Family Mediterranean 2615 Silverhorn Drive Katy, TX 77450 $1,075,000 4,890 sq. ft. 31,799 sq. ft. $220
2018-05-08 Single Family Traditional 23611 Hawkins Creek Court Katy, TX 77494 $279,000 2,294 sq. ft. 7,405 sq. ft. $122
2018-05-08 Single Family Ranch 25203 Shadowmere Lane Katy, TX 77494 $233,595 1,611 sq. ft. 8,712 sq. ft. $145
2018-05-08 Single Family Traditional 6118 Lone Prairie Way Katy, TX 77449 $165,000 1,576 sq. ft. 3,049 sq. ft. $105
2018-05-08 Single Family Contemporary/Modern 28707 Primrose Bluff Drive Katy, TX 77494 $344,990 2,927 sq. ft. 8,276 sq. ft. $118
2018-05-08 Single Family Traditional 4823 Sundance Hollow Katy, TX 77494 $364,900 3,115 sq. ft. 7,841 sq. ft. $117
2018-05-08 Single Family Traditional 24218 Cornell Park Lane Katy, TX 77494 $210,000 1,798 sq. ft. 6,534 sq. ft. $117
2018-05-08 Single Family Traditional 3603 Maple Pass Court Katy, TX 77449 $210,000 2,169 sq. ft. 8,276 sq. ft. $97
2018-05-08 Single Family Traditional 6702 Valerian Lane Katy, TX 77449 $125,000 1,130 sq. ft. 5,227 sq. ft. $111
2018-05-08 Single Family Mediterranean 2610 Kielder Shadow Court Katy, TX 77494 $739,000 5,689 sq. ft. 12,632 sq. ft. $130
2018-05-08 Single Family Traditional 6406 Guilford Glen Lane Katy, TX 77494 $295,000 2,602 sq. ft. 6,970 sq. ft. $113
2018-05-08 Single Family Contemporary/Modern 5018 Ivy Fair Way Katy, TX 77449 $199,000 2,279 sq. ft. 4,792 sq. ft. $87
2018-05-08 Single Family Traditional 10014 Montecola Pine Drive Katy, TX 77494 $345,000 2,886 sq. ft. 6,970 sq. ft. $120
2018-05-08 Single Family Traditional 26235 Kingsgate Lane Katy, TX 77494 $649,000 4,897 sq. ft. 13,068 sq. ft. $133
2018-05-08 Single Family Traditional 19139 Cotton Gin Drive Katy, TX 77449 $180,000 2,171 sq. ft. 6,534 sq. ft. $83
2018-05-08 Single Family Georgian 25706 Oakton Springs Drive Katy, TX 77494 $700,000 5,000 sq. ft. 10,454 sq. ft. $140
2018-05-08 Single Family Traditional 2723 Hannah Meadow Lane Katy, TX 77494 $565,840 3,958 sq. ft. $143
2018-05-08 Single Family Spanish 2714 Hannah Meadow Lane Katy, TX 77494 $561,522 3,668 sq. ft. $153
2018-05-08 Single Family Traditional 2715 Hannah Meadow Lane Katy, TX 77494 $577,478 3,930 sq. ft. $147
2018-05-08 Single Family Mediterranean; Ranch 2711 Bethel Mills Court Katy, TX 77494 $557,364 3,665 sq. ft. $152
2018-05-08 Single Family Traditional 4323 Cannondale Lane Katy, TX 77450 $525,000 3,764 sq. ft. 9,148 sq. ft. $139
2018-05-08 Single Family Ranch 29069 Beckendorff Road Katy, TX 77493 $805,000 5,182 sq. ft. 392,911 sq. ft. $155
2018-05-08 Single Family Traditional 7014 Spring Run Lane Katy, TX 77494 $785,000 5,462 sq. ft. 18,731 sq. ft. $144
2018-05-08 Single Family Traditional 27419 Overland Gap Court Katy, TX 77494 $614,900 4,170 sq. ft. 10,019 sq. ft. $147
2018-05-08 Single Family Traditional 2919 Rutherford Place Court Katy, TX 77494 $809,900 4,963 sq. ft. 11,761 sq. ft. $163
2018-05-08 Single Family Traditional 2310 Caney Fork Court Katy, TX 77494 $665,000 4,560 sq. ft. 14,810 sq. ft. $146
2018-05-08 Single Family French 1611 Katy Shadow Lane Katy, TX 77494 $688,599 4,803 sq. ft. $143
2018-05-08 Single Family Traditional 1026 Fm 2855 Road Katy, TX 77493 $819,000 3,372 sq. ft. 145,490 sq. ft. $243
2018-05-08 Single Family Traditional 2718 Kingston Bluff Katy, TX 77494 $646,616 4,244 sq. ft. 10,890 sq. ft. $152
2018-05-08 Single Family Mediterranean 1822 Katy Shadow Lane Katy, TX 77494 $592,550 3,395 sq. ft. $175
2018-05-08 Single Family Traditional 2818 Crawford Drive Katy, TX 77493 $654,900 4,098 sq. ft. 12,197 sq. ft. $160
2018-05-08 Single Family Spanish; Traditional 143 August Lakes Drive Katy, TX 77493 $1,699,000 5,914 sq. ft. 43,560 sq. ft. $287
2018-05-08 Single Family Ranch; Traditional 155 August Lakes Drive Katy, TX 77493 $1,199,000 3,392 sq. ft. 43,560 sq. ft. $353
2018-05-08 Single Family Traditional 5110 Grand Phillips Lane Katy, TX 77450 $585,000 4,530 sq. ft. 16,117 sq. ft. $129
2018-05-08 Single Family Traditional 3307 Wrangler Sky Court Katy, TX 77494 $814,000 5,056 sq. ft. 12,197 sq. ft. $161
2018-05-08 Single Family Traditional 25607 Peck Meadows Court Katy, TX 77494 $499,990 4,147 sq. ft. 13,504 sq. ft. $121
2018-05-08 Single Family Mediterranean 25615 Ellerbe Springs Lane Katy, TX 77494 $570,000 4,342 sq. ft. 10,454 sq. ft. $131
2018-05-08 Single Family Traditional 25622 Ellerbe Springs Ln Katy, TX 77494 $836,000 4,926 sq. ft. 11,326 sq. ft. $170
2018-05-08 Single Family Traditional 22022 Katie Ridge Lane Katy, TX 77450 $505,000 4,079 sq. ft. 9,583 sq. ft. $124
2018-05-08 Single Family Traditional 5210 Highland Falls Lane Katy, TX 77450 $525,000 4,221 sq. ft. 14,375 sq. ft. $124
2018-05-08 Single Family Traditional 27010 Cheyenne Crest Lane Katy, TX 77494 $525,000 3,229 sq. ft. 9,148 sq. ft. $163
2018-05-08 Single Family Traditional 21414 Kelliwood Greens Drive Katy, TX 77450 $560,000 4,492 sq. ft. 13,068 sq. ft. $125
2018-05-08 Single Family Mediterranean 2406 Ivy Run Court Katy, TX 77450 $1,875,000 7,264 sq. ft. 33,541 sq. ft. $258
2018-05-08 Single Family Traditional 1140 Bartlett Rd Katy, TX 77493 $685,000 4,460 sq. ft. 125,888 sq. ft. $154
2018-05-08 Single Family Traditional 10 Lakefield Trail Katy, TX 77493 $1,199,000 6,475 sq. ft. 268,765 sq. ft. $185
2018-05-08 Single Family Traditional 5511 10th Street Katy, TX 77493 $510,000 2,740 sq. ft. 31,363 sq. ft. $186
2018-05-08 Single Family Mediterranean 6102 A Street Katy, TX 77493 $520,000 3,707 sq. ft. 12,197 sq. ft. $140
2018-05-08 Single Family Contemporary/Modern; Mediterranean 2219 Legends Way Katy, TX 77493 $996,707 6,016 sq. ft. 20,038 sq. ft. $166
2018-05-08 Single Family Traditional 2018 Bendstone Circle Katy, TX 77450 $600,000 4,522 sq. ft. 10,454 sq. ft. $133
2018-05-08 Single Family Contemporary/Modern 27906 Eastonwood Katy, TX 77494 $529,900 4,888 sq. ft. 12,197 sq. ft. $108
2018-05-08 Single Family Traditional 1607 Primrose Lane Katy, TX 77498 $609,727 4,661 sq. ft. 16,117 sq. ft. $131
2018-05-08 Single Family Traditional 10706 Gaston Road Katy, TX 77494 $749,000 4,146 sq. ft. 50,530 sq. ft. $181
2018-05-08 Single Family Traditional 8531 Iron Tree Lane Katy, TX 77494 $569,900 3,950 sq. ft. 9,583 sq. ft. $144
2018-05-08 Single Family Traditional 22911 Chaus Court Katy, TX 77494 $900,000 5,182 sq. ft. 13,504 sq. ft. $174
2018-05-08 Single Family Traditional 4603 Kings Landing Lane Katy, TX 77494 $584,999 4,257 sq. ft. 10,454 sq. ft. $137
2018-05-08 Single Family Traditional 25615 Oakton Springs Drive Katy, TX 77494 $549,000 4,658 sq. ft. 10,454 sq. ft. $118
2018-05-08 Single Family Traditional 10010 Touhy Lake Drive Katy, TX 77494 $540,000 4,097 sq. ft. 10,019 sq. ft. $132
2018-05-08 Single Family Traditional 1303 Lake Grayson Drive Katy, TX 77494 $625,000 4,557 sq. ft. 20,038 sq. ft. $137
2018-05-08 Single Family Traditional 2114 Draycutt Drive Katy, TX 77494 $530,000 3,979 sq. ft. 11,326 sq. ft. $133
2018-05-08 Single Family Traditional 20115 Brondesbury Katy, TX 77450 $549,000 5,306 sq. ft. 10,890 sq. ft. $103
2018-05-08 Single Family Traditional 27803 Eastonwood Court Katy, TX 77494 $750,000 4,838 sq. ft. 23,087 sq. ft. $155
2018-05-08 Single Family Traditional 3737 Katy Hockley Road Katy, TX 77493 $875,000 3,973 sq. ft. 128,502 sq. ft. $220
2018-05-08 Single Family Mediterranean 7511 Emerald Meadow Court Katy, TX 77494 $1,199,000 5,961 sq. ft. 12,632 sq. ft. $201
2018-05-08 Single Family Traditional 3706 Gable Grove Lane Katy, TX 77494 $589,900 4,241 sq. ft. 18,731 sq. ft. $139
2018-05-08 Single Family Traditional 10118 Stafford Hill Cove Katy, TX 77494 $515,000 4,383 sq. ft. 9,583 sq. ft. $118
2018-05-08 Single Family Traditional 3208 Reston Landing Katy, TX 77494 $649,900 4,366 sq. ft. 11,761 sq. ft. $149
2018-05-08 Single Family Traditional 27127 Barrington Lodge Lane Katy, TX 77494 $650,000 4,375 sq. ft. 11,326 sq. ft. $149
2018-05-08 Single Family Traditional 2914 Brighton Sky Lane Katy, TX 77494 $899,990 6,114 sq. ft. 14,375 sq. ft. $147
2018-05-08 Single Family Traditional 24806 Millers Lane Katy, TX 77493 $775,000 3,856 sq. ft. 104,108 sq. ft. $201
2018-05-08 Single Family Traditional 3803 Trailstone Lane Katy, TX 77494 $680,000 4,787 sq. ft. 10,019 sq. ft. $142
2018-05-08 Single Family Other Style 22806 Parkwalk Lane Katy, TX 77494 $659,750 4,062 sq. ft. 11,761 sq. ft. $162
2018-05-08 Single Family Traditional 115 Coppersmith Drive Katy, TX 77450 $190,000 1,495 sq. ft. 9,148 sq. ft. $127
2018-05-08 Single Family Contemporary/Modern 21210 Twisted Willow Lane Katy, TX 77450 $279,900 2,591 sq. ft. 6,534 sq. ft. $108
2018-05-07 Single Family Traditional 10206 Western Pine Trail Katy, TX 77494 $399,000 3,510 sq. ft. 7,841 sq. ft. $114
2018-05-07 Single Family Traditional 2443 Shelby Park Drive Katy, TX 77450 $420,000 3,366 sq. ft. 10,019 sq. ft. $125
2018-05-07 Single Family Traditional 3306 Colorado Bend Drive Katy, TX 77494 $359,900 3,016 sq. ft. 11,326 sq. ft. $119
2018-05-07 Single Family Traditional 21415 Bridgewater Point Katy, TX 77449 $159,000 1,710 sq. ft. 6,534 sq. ft. $93
2018-05-07 Single Family Traditional 24331 Courtland Oaks Katy, TX 77494 $228,000 2,130 sq. ft. 6,098 sq. ft. $107
2018-05-07 Single Family Traditional 27919 Bracken Hurst Drive Katy, TX 77494 $584,000 4,534 sq. ft. 9,148 sq. ft. $129
2018-05-07 Single Family Traditional 7107 Humble Court Katy, TX 77493 $654,900 4,190 sq. ft. 11,761 sq. ft. $156
2018-05-07 Single Family Mediterranean 9906 Slover Creek Lane Katy, TX 77494 $750,000 4,454 sq. ft. 11,761 sq. ft. $168
2018-05-07 Single Family Traditional 23710 Legendary Lane Drive Katy, TX 77494 $799,900 5,088 sq. ft. 16,553 sq. ft. $157
2018-05-07 Single Family Traditional 22810 Deforest Ridge Lane Katy, TX 77494 $540,000 3,709 sq. ft. 12,197 sq. ft. $146
2018-05-07 Single Family Traditional 26315 Cottage Springs Court Katy, TX 77494 $459,000 4,682 sq. ft. 10,019 sq. ft. $98
2018-05-07 Single Family Traditional 2506 Monarch Terrace Drive Katy, TX 77494 $405,000 3,417 sq. ft. 11,761 sq. ft. $119
2018-05-07 Single Family Traditional 23931 Birchwood Lake Lane Katy, TX 77493 $448,990 3,014 sq. ft. $149
2018-05-07 Single Family Traditional 2703 Falcon Knoll Lane Katy, TX 77494 $295,000 2,813 sq. ft. 7,841 sq. ft. $105
2018-05-07 Single Family Traditional 6430 Addlestone Ridge Lane Katy, TX 77494 $289,900 2,474 sq. ft. 6,098 sq. ft. $117
2018-05-07 Single Family Ranch 3006 Veeder Pass Katy, TX 77494 $211,990 1,480 sq. ft. $143
2018-05-07 Single Family Traditional 2151 Brinton Oaks Court Katy, TX 77450 $249,900 2,447 sq. ft. 7,405 sq. ft. $102
2018-05-07 Single Family Colonial 1015 Long Prairie Drive Katy, TX 77450 $225,000 2,033 sq. ft. 6,970 sq. ft. $111
2018-05-07 Single Family Traditional 22503 Belmont Cove Lane Katy, TX 77449 $199,900 1,984 sq. ft. 12,197 sq. ft. $101
2018-05-07 Single Family Traditional 21314 Bandera Ranch Lane Katy, TX 77449 $185,000 1,588 sq. ft. 4,792 sq. ft. $116
2018-05-07 Single Family Ranch 3030 Upland Spring Trace Katy, TX 77493 $175,000 1,488 sq. ft. 4,792 sq. ft. $118